sensor_id;sensor_type;location;lat;lon;timestamp;P1;durP1;ratioP1;P2;durP2;ratioP2
16593;SDS011;8410;52.532;13.336;2022-09-20T00:01:05;2.63;;;1.50;;
16593;SDS011;8410;52.532;13.336;2022-09-20T00:03:34;3.47;;;2.10;;
16593;SDS011;8410;52.532;13.336;2022-09-20T00:06:05;5.47;;;1.10;;
16593;SDS011;8410;52.532;13.336;2022-09-20T00:08:34;4.10;;;1.67;;
16593;SDS011;8410;52.532;13.336;2022-09-20T00:11:02;2.63;;;1.43;;
16593;SDS011;8410;52.532;13.336;2022-09-20T00:13:33;2.43;;;1.50;;
16593;SDS011;8410;52.532;13.336;2022-09-20T00:16:03;1.93;;;1.30;;
16593;SDS011;8410;52.532;13.336;2022-09-20T00:18:32;4.70;;;1.70;;
16593;SDS011;8410;52.532;13.336;2022-09-20T00:20:59;2.23;;;1.30;;
16593;SDS011;8410;52.532;13.336;2022-09-20T00:23:27;3.20;;;1.50;;
16593;SDS011;8410;52.532;13.336;2022-09-20T00:25:55;3.43;;;1.40;;
16593;SDS011;8410;52.532;13.336;2022-09-20T00:28:24;3.73;;;1.63;;
16593;SDS011;8410;52.532;13.336;2022-09-20T00:30:53;2.43;;;1.90;;
16593;SDS011;8410;52.532;13.336;2022-09-20T00:33:23;3.67;;;1.60;;
16593;SDS011;8410;52.532;13.336;2022-09-20T00:36:12;2.47;;;1.30;;
16593;SDS011;8410;52.532;13.336;2022-09-20T00:38:38;1.97;;;1.33;;
16593;SDS011;8410;52.532;13.336;2022-09-20T00:41:06;2.17;;;1.43;;
16593;SDS011;8410;52.532;13.336;2022-09-20T00:43:34;3.10;;;1.60;;
16593;SDS011;8410;52.532;13.336;2022-09-20T00:46:05;2.90;;;1.40;;
16593;SDS011;8410;52.532;13.336;2022-09-20T00:48:47;2.57;;;1.70;;
16593;SDS011;8410;52.532;13.336;2022-09-20T00:51:16;4.87;;;1.57;;
16593;SDS011;8410;52.532;13.336;2022-09-20T00:53:51;1.70;;;1.30;;
16593;SDS011;8410;52.532;13.336;2022-09-20T00:56:23;3.37;;;1.80;;
16593;SDS011;8410;52.532;13.336;2022-09-20T00:58:54;4.27;;;1.63;;
16593;SDS011;8410;52.532;13.336;2022-09-20T01:01:30;3.23;;;1.83;;
16593;SDS011;8410;52.532;13.336;2022-09-20T01:03:58;2.83;;;1.60;;
16593;SDS011;8410;52.532;13.336;2022-09-20T01:06:26;3.40;;;1.40;;
16593;SDS011;8410;52.532;13.336;2022-09-20T01:08:55;2.83;;;1.10;;
16593;SDS011;8410;52.532;13.336;2022-09-20T01:11:27;2.60;;;1.30;;
16593;SDS011;8410;52.532;13.336;2022-09-20T01:13:56;1.93;;;1.50;;
16593;SDS011;8410;52.532;13.336;2022-09-20T01:16:23;3.40;;;1.50;;
16593;SDS011;8410;52.532;13.336;2022-09-20T01:18:55;2.33;;;1.50;;
16593;SDS011;8410;52.532;13.336;2022-09-20T01:21:27;2.30;;;1.30;;
16593;SDS011;8410;52.532;13.336;2022-09-20T01:23:56;2.37;;;1.40;;
16593;SDS011;8410;52.532;13.336;2022-09-20T01:26:36;3.33;;;1.87;;
16593;SDS011;8410;52.532;13.336;2022-09-20T01:29:19;4.57;;;1.60;;
16593;SDS011;8410;52.532;13.336;2022-09-20T01:31:55;14.30;;;8.53;;
16593;SDS011;8410;52.532;13.336;2022-09-20T01:34:27;2.40;;;1.80;;
16593;SDS011;8410;52.532;13.336;2022-09-20T01:37:01;2.40;;;1.60;;
16593;SDS011;8410;52.532;13.336;2022-09-20T01:39:34;3.13;;;1.40;;
16593;SDS011;8410;52.532;13.336;2022-09-20T01:42:06;2.43;;;1.50;;
16593;SDS011;8410;52.532;13.336;2022-09-20T01:44:38;2.73;;;1.93;;
16593;SDS011;8410;52.532;13.336;2022-09-20T01:47:14;4.80;;;2.07;;
16593;SDS011;8410;52.532;13.336;2022-09-20T01:49:55;3.57;;;1.70;;
16593;SDS011;8410;52.532;13.336;2022-09-20T01:52:36;3.03;;;1.87;;
16593;SDS011;8410;52.532;13.336;2022-09-20T01:55:44;3.20;;;1.50;;
16593;SDS011;8410;52.532;13.336;2022-09-20T02:02:09;2.83;;;1.53;;
16593;SDS011;8410;52.532;13.336;2022-09-20T02:05:11;3.13;;;1.60;;
16593;SDS011;8410;52.532;13.336;2022-09-20T02:08:07;5.33;;;1.40;;
16593;SDS011;8410;52.532;13.336;2022-09-20T02:10:57;3.10;;;2.00;;
16593;SDS011;8410;52.532;13.336;2022-09-20T02:13:37;2.03;;;1.53;;
16593;SDS011;8410;52.532;13.336;2022-09-20T02:16:35;2.30;;;1.70;;
16593;SDS011;8410;52.532;13.336;2022-09-20T02:19:38;3.63;;;1.80;;
16593;SDS011;8410;52.532;13.336;2022-09-20T02:22:18;3.20;;;1.30;;
16593;SDS011;8410;52.532;13.336;2022-09-20T02:24:55;2.40;;;1.43;;
16593;SDS011;8410;52.532;13.336;2022-09-20T02:27:30;3.03;;;1.37;;
16593;SDS011;8410;52.532;13.336;2022-09-20T02:30:11;1.70;;;1.30;;
16593;SDS011;8410;52.532;13.336;2022-09-20T02:33:02;4.03;;;1.40;;
16593;SDS011;8410;52.532;13.336;2022-09-20T02:35:47;2.40;;;1.30;;
16593;SDS011;8410;52.532;13.336;2022-09-20T02:38:35;2.40;;;1.40;;
16593;SDS011;8410;52.532;13.336;2022-09-20T02:41:26;1.73;;;0.97;;
16593;SDS011;8410;52.532;13.336;2022-09-20T02:44:17;1.03;;;0.93;;
16593;SDS011;8410;52.532;13.336;2022-09-20T02:46:53;2.53;;;1.07;;
16593;SDS011;8410;52.532;13.336;2022-09-20T02:49:30;2.17;;;1.17;;
16593;SDS011;8410;52.532;13.336;2022-09-20T02:52:12;3.00;;;1.10;;
16593;SDS011;8410;52.532;13.336;2022-09-20T02:54:49;4.03;;;1.80;;
16593;SDS011;8410;52.532;13.336;2022-09-20T02:57:24;2.50;;;1.40;;
16593;SDS011;8410;52.532;13.336;2022-09-20T02:59:57;3.87;;;1.40;;
16593;SDS011;8410;52.532;13.336;2022-09-20T03:02:29;3.43;;;1.50;;
16593;SDS011;8410;52.532;13.336;2022-09-20T03:05:05;4.90;;;1.33;;
16593;SDS011;8410;52.532;13.336;2022-09-20T03:07:44;3.47;;;1.60;;
16593;SDS011;8410;52.532;13.336;2022-09-20T03:10:24;3.70;;;1.60;;
16593;SDS011;8410;52.532;13.336;2022-09-20T03:13:03;2.60;;;1.30;;
16593;SDS011;8410;52.532;13.336;2022-09-20T03:15:44;1.43;;;1.33;;
16593;SDS011;8410;52.532;13.336;2022-09-20T03:18:28;4.53;;;1.40;;
16593;SDS011;8410;52.532;13.336;2022-09-20T03:21:04;1.50;;;1.40;;
16593;SDS011;8410;52.532;13.336;2022-09-20T03:23:47;5.33;;;1.80;;
16593;SDS011;8410;52.532;13.336;2022-09-20T03:26:28;3.37;;;1.60;;
16593;SDS011;8410;52.532;13.336;2022-09-20T03:29:06;2.30;;;1.20;;
16593;SDS011;8410;52.532;13.336;2022-09-20T03:31:48;2.30;;;1.50;;
16593;SDS011;8410;52.532;13.336;2022-09-20T03:34:30;3.57;;;1.50;;
16593;SDS011;8410;52.532;13.336;2022-09-20T03:37:09;2.53;;;1.60;;
16593;SDS011;8410;52.532;13.336;2022-09-20T03:39:57;3.00;;;1.20;;
16593;SDS011;8410;52.532;13.336;2022-09-20T03:42:39;2.07;;;1.20;;
16593;SDS011;8410;52.532;13.336;2022-09-20T03:45:21;1.80;;;1.60;;
16593;SDS011;8410;52.532;13.336;2022-09-20T03:48:00;2.50;;;1.50;;
16593;SDS011;8410;52.532;13.336;2022-09-20T03:50:46;2.20;;;1.30;;
16593;SDS011;8410;52.532;13.336;2022-09-20T03:53:36;2.20;;;1.20;;
16593;SDS011;8410;52.532;13.336;2022-09-20T03:56:37;1.63;;;1.33;;
16593;SDS011;8410;52.532;13.336;2022-09-20T03:59:35;2.67;;;1.47;;
16593;SDS011;8410;52.532;13.336;2022-09-20T04:02:35;2.77;;;1.60;;
16593;SDS011;8410;52.532;13.336;2022-09-20T04:05:13;1.40;;;1.30;;
16593;SDS011;8410;52.532;13.336;2022-09-20T04:07:47;2.63;;;1.43;;
16593;SDS011;8410;52.532;13.336;2022-09-20T04:10:33;2.70;;;2.50;;
16593;SDS011;8410;52.532;13.336;2022-09-20T04:13:19;3.83;;;1.73;;
16593;SDS011;8410;52.532;13.336;2022-09-20T04:16:06;1.83;;;1.37;;
16593;SDS011;8410;52.532;13.336;2022-09-20T04:18:45;4.83;;;1.33;;
16593;SDS011;8410;52.532;13.336;2022-09-20T04:21:18;3.47;;;1.80;;
16593;SDS011;8410;52.532;13.336;2022-09-20T04:23:55;3.60;;;1.70;;
16593;SDS011;8410;52.532;13.336;2022-09-20T04:26:29;3.00;;;1.90;;
16593;SDS011;8410;52.532;13.336;2022-09-20T04:29:01;4.47;;;1.90;;
16593;SDS011;8410;52.532;13.336;2022-09-20T04:31:44;2.20;;;1.70;;
16593;SDS011;8410;52.532;13.336;2022-09-20T04:34:21;3.10;;;1.60;;
16593;SDS011;8410;52.532;13.336;2022-09-20T04:37:17;4.23;;;2.90;;
16593;SDS011;8410;52.532;13.336;2022-09-20T04:39:52;5.67;;;1.97;;
16593;SDS011;8410;52.532;13.336;2022-09-20T04:45:42;2.10;;;1.80;;
16593;SDS011;8410;52.532;13.336;2022-09-20T04:48:44;2.47;;;1.93;;
16593;SDS011;8410;52.532;13.336;2022-09-20T05:04:11;1.90;;;1.70;;
16593;SDS011;8410;52.532;13.336;2022-09-20T05:07:09;4.47;;;1.70;;
16593;SDS011;8410;52.532;13.336;2022-09-20T05:10:02;5.70;;;1.63;;
16593;SDS011;8410;52.532;13.336;2022-09-20T05:12:53;2.33;;;1.90;;
16593;SDS011;8410;52.532;13.336;2022-09-20T05:15:38;4.03;;;1.87;;
16593;SDS011;8410;52.532;13.336;2022-09-20T05:18:24;2.43;;;1.87;;
16593;SDS011;8410;52.532;13.336;2022-09-20T05:24:12;3.30;;;2.00;;
16593;SDS011;8410;52.532;13.336;2022-09-20T05:26:52;2.87;;;1.80;;
16593;SDS011;8410;52.532;13.336;2022-09-20T05:29:30;2.80;;;1.70;;
16593;SDS011;8410;52.532;13.336;2022-09-20T05:32:07;4.03;;;1.93;;
16593;SDS011;8410;52.532;13.336;2022-09-20T05:34:41;2.50;;;1.50;;
16593;SDS011;8410;52.532;13.336;2022-09-20T05:37:15;4.67;;;1.30;;
16593;SDS011;8410;52.532;13.336;2022-09-20T05:39:51;3.20;;;1.70;;
16593;SDS011;8410;52.532;13.336;2022-09-20T05:42:30;2.47;;;1.37;;
16593;SDS011;8410;52.532;13.336;2022-09-20T05:45:12;2.63;;;1.87;;
16593;SDS011;8410;52.532;13.336;2022-09-20T05:47:48;2.90;;;1.57;;
16593;SDS011;8410;52.532;13.336;2022-09-20T05:50:31;2.67;;;1.60;;
16593;SDS011;8410;52.532;13.336;2022-09-20T05:53:14;2.37;;;1.90;;
16593;SDS011;8410;52.532;13.336;2022-09-20T05:56:01;1.70;;;1.60;;
16593;SDS011;8410;52.532;13.336;2022-09-20T05:58:38;2.57;;;1.60;;
16593;SDS011;8410;52.532;13.336;2022-09-20T06:01:17;4.47;;;1.90;;
16593;SDS011;8410;52.532;13.336;2022-09-20T06:03:52;2.80;;;1.60;;
16593;SDS011;8410;52.532;13.336;2022-09-20T06:06:35;2.20;;;1.80;;
16593;SDS011;8410;52.532;13.336;2022-09-20T06:09:24;3.43;;;2.00;;
16593;SDS011;8410;52.532;13.336;2022-09-20T06:12:07;3.47;;;1.63;;
16593;SDS011;8410;52.532;13.336;2022-09-20T06:14:47;2.67;;;2.07;;
16593;SDS011;8410;52.532;13.336;2022-09-20T06:17:26;3.63;;;2.10;;
16593;SDS011;8410;52.532;13.336;2022-09-20T06:20:10;5.50;;;1.80;;
16593;SDS011;8410;52.532;13.336;2022-09-20T06:22:43;4.30;;;1.70;;
16593;SDS011;8410;52.532;13.336;2022-09-20T06:25:17;2.60;;;2.20;;
16593;SDS011;8410;52.532;13.336;2022-09-20T06:27:50;2.50;;;1.60;;
16593;SDS011;8410;52.532;13.336;2022-09-20T06:30:21;3.60;;;2.00;;
16593;SDS011;8410;52.532;13.336;2022-09-20T06:32:56;2.20;;;1.83;;
16593;SDS011;8410;52.532;13.336;2022-09-20T06:35:28;4.30;;;1.90;;
16593;SDS011;8410;52.532;13.336;2022-09-20T06:38:06;3.10;;;2.10;;
16593;SDS011;8410;52.532;13.336;2022-09-20T06:41:09;3.37;;;1.60;;
16593;SDS011;8410;52.532;13.336;2022-09-20T06:43:55;2.50;;;1.80;;
16593;SDS011;8410;52.532;13.336;2022-09-20T06:46:25;3.37;;;1.87;;
16593;SDS011;8410;52.532;13.336;2022-09-20T06:48:54;2.40;;;1.80;;
16593;SDS011;8410;52.532;13.336;2022-09-20T06:51:22;2.90;;;1.90;;
16593;SDS011;8410;52.532;13.336;2022-09-20T06:53:51;2.10;;;1.80;;
16593;SDS011;8410;52.532;13.336;2022-09-20T06:56:22;2.73;;;1.80;;
16593;SDS011;8410;52.532;13.336;2022-09-20T06:58:53;5.43;;;2.37;;
16593;SDS011;8410;52.532;13.336;2022-09-20T07:01:20;3.27;;;2.00;;
16593;SDS011;8410;52.532;13.336;2022-09-20T07:03:56;2.87;;;2.07;;
16593;SDS011;8410;52.532;13.336;2022-09-20T07:06:23;2.43;;;2.00;;
16593;SDS011;8410;52.532;13.336;2022-09-20T07:08:53;3.93;;;1.67;;
16593;SDS011;8410;52.532;13.336;2022-09-20T07:11:22;2.27;;;1.87;;
16593;SDS011;8410;52.532;13.336;2022-09-20T07:13:51;5.30;;;2.10;;
16593;SDS011;8410;52.532;13.336;2022-09-20T07:16:20;2.47;;;1.90;;
16593;SDS011;8410;52.532;13.336;2022-09-20T07:18:48;4.00;;;2.00;;
16593;SDS011;8410;52.532;13.336;2022-09-20T07:21:17;3.13;;;1.97;;
16593;SDS011;8410;52.532;13.336;2022-09-20T07:23:46;4.70;;;2.97;;
16593;SDS011;8410;52.532;13.336;2022-09-20T07:26:17;4.47;;;2.30;;
16593;SDS011;8410;52.532;13.336;2022-09-20T07:28:47;3.07;;;2.20;;
16593;SDS011;8410;52.532;13.336;2022-09-20T07:31:17;4.67;;;2.13;;
16593;SDS011;8410;52.532;13.336;2022-09-20T07:33:45;3.27;;;1.93;;
16593;SDS011;8410;52.532;13.336;2022-09-20T07:36:13;4.37;;;1.90;;
16593;SDS011;8410;52.532;13.336;2022-09-20T07:38:41;2.37;;;2.00;;
16593;SDS011;8410;52.532;13.336;2022-09-20T07:41:13;4.13;;;1.97;;
16593;SDS011;8410;52.532;13.336;2022-09-20T07:43:40;4.97;;;2.10;;
16593;SDS011;8410;52.532;13.336;2022-09-20T07:46:09;1.97;;;1.70;;
16593;SDS011;8410;52.532;13.336;2022-09-20T07:48:39;5.40;;;2.77;;
16593;SDS011;8410;52.532;13.336;2022-09-20T07:51:07;5.27;;;3.70;;
16593;SDS011;8410;52.532;13.336;2022-09-20T07:53:36;5.77;;;2.30;;
16593;SDS011;8410;52.532;13.336;2022-09-20T07:56:05;5.30;;;3.17;;
16593;SDS011;8410;52.532;13.336;2022-09-20T07:58:34;6.00;;;2.20;;
16593;SDS011;8410;52.532;13.336;2022-09-20T08:01:03;7.03;;;2.57;;
16593;SDS011;8410;52.532;13.336;2022-09-20T08:03:33;5.07;;;2.60;;
16593;SDS011;8410;52.532;13.336;2022-09-20T08:06:01;2.83;;;1.90;;
16593;SDS011;8410;52.532;13.336;2022-09-20T08:08:30;5.23;;;2.50;;
16593;SDS011;8410;52.532;13.336;2022-09-20T08:11:02;5.40;;;2.50;;
16593;SDS011;8410;52.532;13.336;2022-09-20T08:13:34;8.43;;;2.53;;
16593;SDS011;8410;52.532;13.336;2022-09-20T08:16:22;2.83;;;2.03;;
16593;SDS011;8410;52.532;13.336;2022-09-20T08:18:52;4.17;;;2.20;;
16593;SDS011;8410;52.532;13.336;2022-09-20T08:21:22;4.30;;;2.53;;
16593;SDS011;8410;52.532;13.336;2022-09-20T08:23:51;6.23;;;2.30;;
16593;SDS011;8410;52.532;13.336;2022-09-20T08:26:20;4.53;;;2.10;;
16593;SDS011;8410;52.532;13.336;2022-09-20T08:28:50;3.50;;;1.93;;
16593;SDS011;8410;52.532;13.336;2022-09-20T08:31:19;4.80;;;1.97;;
16593;SDS011;8410;52.532;13.336;2022-09-20T08:33:51;2.77;;;1.87;;
16593;SDS011;8410;52.532;13.336;2022-09-20T08:36:20;3.73;;;2.27;;
16593;SDS011;8410;52.532;13.336;2022-09-20T08:38:49;6.37;;;2.43;;
16593;SDS011;8410;52.532;13.336;2022-09-20T08:41:37;3.93;;;1.87;;
16593;SDS011;8410;52.532;13.336;2022-09-20T08:44:10;3.63;;;1.90;;
16593;SDS011;8410;52.532;13.336;2022-09-20T08:46:44;5.67;;;2.20;;
16593;SDS011;8410;52.532;13.336;2022-09-20T08:49:18;4.53;;;2.30;;
16593;SDS011;8410;52.532;13.336;2022-09-20T08:51:52;3.43;;;1.97;;
16593;SDS011;8410;52.532;13.336;2022-09-20T08:54:23;9.13;;;2.13;;
16593;SDS011;8410;52.532;13.336;2022-09-20T08:56:57;4.90;;;2.10;;
16593;SDS011;8410;52.532;13.336;2022-09-20T08:59:30;3.20;;;1.70;;
16593;SDS011;8410;52.532;13.336;2022-09-20T09:01:58;5.87;;;2.30;;
16593;SDS011;8410;52.532;13.336;2022-09-20T09:04:30;4.07;;;2.30;;
16593;SDS011;8410;52.532;13.336;2022-09-20T09:07:01;3.63;;;2.20;;
16593;SDS011;8410;52.532;13.336;2022-09-20T09:09:29;4.10;;;1.83;;
16593;SDS011;8410;52.532;13.336;2022-09-20T09:12:03;3.33;;;1.70;;
16593;SDS011;8410;52.532;13.336;2022-09-20T09:14:32;6.30;;;2.17;;
16593;SDS011;8410;52.532;13.336;2022-09-20T09:17:20;7.33;;;2.90;;
16593;SDS011;8410;52.532;13.336;2022-09-20T09:19:54;6.33;;;2.70;;
16593;SDS011;8410;52.532;13.336;2022-09-20T09:22:23;5.87;;;2.90;;
16593;SDS011;8410;52.532;13.336;2022-09-20T09:25:06;2.90;;;1.87;;
16593;SDS011;8410;52.532;13.336;2022-09-20T09:27:50;6.80;;;2.30;;
16593;SDS011;8410;52.532;13.336;2022-09-20T09:30:20;5.73;;;2.13;;
16593;SDS011;8410;52.532;13.336;2022-09-20T09:32:49;2.70;;;2.13;;
16593;SDS011;8410;52.532;13.336;2022-09-20T09:35:27;5.70;;;3.80;;
16593;SDS011;8410;52.532;13.336;2022-09-20T09:37:57;3.53;;;2.73;;
16593;SDS011;8410;52.532;13.336;2022-09-20T09:40:26;5.07;;;2.77;;
16593;SDS011;8410;52.532;13.336;2022-09-20T09:42:55;5.87;;;3.30;;
16593;SDS011;8410;52.532;13.336;2022-09-20T09:45:31;4.70;;;3.07;;
16593;SDS011;8410;52.532;13.336;2022-09-20T09:48:17;3.17;;;2.80;;
16593;SDS011;8410;52.532;13.336;2022-09-20T09:50:47;3.70;;;2.77;;
16593;SDS011;8410;52.532;13.336;2022-09-20T09:53:20;4.17;;;2.30;;
16593;SDS011;8410;52.532;13.336;2022-09-20T09:55:56;4.80;;;2.70;;
16593;SDS011;8410;52.532;13.336;2022-09-20T09:58:42;5.60;;;3.60;;
16593;SDS011;8410;52.532;13.336;2022-09-20T10:01:23;6.40;;;3.00;;
16593;SDS011;8410;52.532;13.336;2022-09-20T10:04:00;4.70;;;3.17;;
16593;SDS011;8410;52.532;13.336;2022-09-20T10:06:39;6.10;;;4.27;;
16593;SDS011;8410;52.532;13.336;2022-09-20T10:09:20;4.33;;;3.70;;
16593;SDS011;8410;52.532;13.336;2022-09-20T10:12:07;5.43;;;3.47;;
16593;SDS011;8410;52.532;13.336;2022-09-20T10:14:51;5.07;;;3.77;;
16593;SDS011;8410;52.532;13.336;2022-09-20T10:17:37;6.20;;;4.10;;
16593;SDS011;8410;52.532;13.336;2022-09-20T10:23:17;8.83;;;3.40;;
16593;SDS011;8410;52.532;13.336;2022-09-20T10:26:20;5.17;;;3.07;;
16593;SDS011;8410;52.532;13.336;2022-09-20T10:29:06;5.83;;;3.53;;
16593;SDS011;8410;52.532;13.336;2022-09-20T10:31:46;5.13;;;3.20;;
16593;SDS011;8410;52.532;13.336;2022-09-20T10:34:37;3.50;;;2.90;;
16593;SDS011;8410;52.532;13.336;2022-09-20T10:37:38;5.53;;;3.70;;
16593;SDS011;8410;52.532;13.336;2022-09-20T10:40:19;4.47;;;3.53;;
16593;SDS011;8410;52.532;13.336;2022-09-20T10:43:21;7.63;;;3.87;;
16593;SDS011;8410;52.532;13.336;2022-09-20T10:46:00;5.73;;;3.93;;
16593;SDS011;8410;52.532;13.336;2022-09-20T10:48:59;8.07;;;3.53;;
16593;SDS011;8410;52.532;13.336;2022-09-20T10:51:34;5.20;;;3.03;;
16593;SDS011;8410;52.532;13.336;2022-09-20T10:54:09;4.90;;;3.30;;
16593;SDS011;8410;52.532;13.336;2022-09-20T10:56:52;5.93;;;3.00;;
16593;SDS011;8410;52.532;13.336;2022-09-20T10:59:34;5.50;;;3.00;;
16593;SDS011;8410;52.532;13.336;2022-09-20T11:02:19;3.50;;;3.00;;
16593;SDS011;8410;52.532;13.336;2022-09-20T11:05:07;5.47;;;3.10;;
16593;SDS011;8410;52.532;13.336;2022-09-20T11:07:49;5.87;;;3.87;;
16593;SDS011;8410;52.532;13.336;2022-09-20T11:10:21;6.97;;;3.93;;
16593;SDS011;8410;52.532;13.336;2022-09-20T11:12:56;3.03;;;1.57;;
16593;SDS011;8410;52.532;13.336;2022-09-20T11:15:28;5.40;;;1.67;;
16593;SDS011;8410;52.532;13.336;2022-09-20T11:18:02;2.40;;;1.50;;
16593;SDS011;8410;52.532;13.336;2022-09-20T11:20:35;4.30;;;1.90;;
16593;SDS011;8410;52.532;13.336;2022-09-20T11:23:10;4.97;;;2.10;;
16593;SDS011;8410;52.532;13.336;2022-09-20T11:25:44;2.67;;;1.70;;
16593;SDS011;8410;52.532;13.336;2022-09-20T11:28:18;6.97;;;2.67;;
16593;SDS011;8410;52.532;13.336;2022-09-20T11:30:52;8.73;;;3.50;;
16593;SDS011;8410;52.532;13.336;2022-09-20T11:33:26;2.67;;;1.53;;
16593;SDS011;8410;52.532;13.336;2022-09-20T11:35:57;3.87;;;1.60;;
16593;SDS011;8410;52.532;13.336;2022-09-20T11:38:27;2.93;;;1.63;;
16593;SDS011;8410;52.532;13.336;2022-09-20T11:41:01;3.00;;;1.30;;
16593;SDS011;8410;52.532;13.336;2022-09-20T11:43:36;2.10;;;1.90;;
16593;SDS011;8410;52.532;13.336;2022-09-20T11:46:11;5.80;;;2.27;;
16593;SDS011;8410;52.532;13.336;2022-09-20T11:48:43;2.07;;;1.87;;
16593;SDS011;8410;52.532;13.336;2022-09-20T11:51:31;2.70;;;1.63;;
16593;SDS011;8410;52.532;13.336;2022-09-20T11:54:21;3.10;;;1.57;;
16593;SDS011;8410;52.532;13.336;2022-09-20T11:57:00;4.57;;;2.20;;
16593;SDS011;8410;52.532;13.336;2022-09-20T11:59:33;3.83;;;2.23;;
16593;SDS011;8410;52.532;13.336;2022-09-20T12:02:04;3.37;;;2.90;;
16593;SDS011;8410;52.532;13.336;2022-09-20T12:04:43;5.60;;;2.77;;
16593;SDS011;8410;52.532;13.336;2022-09-20T12:07:18;4.57;;;3.20;;
16593;SDS011;8410;52.532;13.336;2022-09-20T12:09:53;9.67;;;4.40;;
16593;SDS011;8410;52.532;13.336;2022-09-20T12:12:29;6.90;;;4.10;;
16593;SDS011;8410;52.532;13.336;2022-09-20T12:15:03;7.67;;;4.67;;
16593;SDS011;8410;52.532;13.336;2022-09-20T12:23:45;8.00;;;5.57;;
16593;SDS011;8410;52.532;13.336;2022-09-20T12:26:37;4.83;;;4.33;;
16593;SDS011;8410;52.532;13.336;2022-09-20T12:32:38;6.53;;;3.57;;
16593;SDS011;8410;52.532;13.336;2022-09-20T12:38:37;3.03;;;2.33;;
16593;SDS011;8410;52.532;13.336;2022-09-20T12:41:14;3.13;;;2.20;;
16593;SDS011;8410;52.532;13.336;2022-09-20T12:43:54;7.77;;;2.20;;
16593;SDS011;8410;52.532;13.336;2022-09-20T12:46:26;3.50;;;2.57;;
16593;SDS011;8410;52.532;13.336;2022-09-20T12:52:24;2.23;;;1.80;;
16593;SDS011;8410;52.532;13.336;2022-09-20T12:55:08;1.60;;;0.80;;
16593;SDS011;8410;52.532;13.336;2022-09-20T12:57:37;1.07;;;0.70;;
16593;SDS011;8410;52.532;13.336;2022-09-20T13:00:06;0.70;;;0.57;;
16593;SDS011;8410;52.532;13.336;2022-09-20T13:02:56;0.63;;;0.40;;
16593;SDS011;8410;52.532;13.336;2022-09-20T13:05:30;0.67;;;0.50;;
16593;SDS011;8410;52.532;13.336;2022-09-20T13:08:13;0.67;;;0.50;;
16593;SDS011;8410;52.532;13.336;2022-09-20T13:10:44;0.93;;;0.53;;
16593;SDS011;8410;52.532;13.336;2022-09-20T13:13:26;1.27;;;0.50;;
16593;SDS011;8410;52.532;13.336;2022-09-20T13:15:58;1.43;;;0.50;;
16593;SDS011;8410;52.532;13.336;2022-09-20T13:18:30;1.00;;;0.77;;
16593;SDS011;8410;52.532;13.336;2022-09-20T13:21:01;2.20;;;1.50;;
16593;SDS011;8410;52.532;13.336;2022-09-20T13:23:34;1.43;;;1.30;;
16593;SDS011;8410;52.532;13.336;2022-09-20T13:26:11;2.63;;;1.47;;
16593;SDS011;8410;52.532;13.336;2022-09-20T13:28:43;1.30;;;1.20;;
16593;SDS011;8410;52.532;13.336;2022-09-20T13:31:29;2.10;;;1.43;;
16593;SDS011;8410;52.532;13.336;2022-09-20T13:34:19;1.17;;;0.90;;
16593;SDS011;8410;52.532;13.336;2022-09-20T13:36:51;1.00;;;0.67;;
16593;SDS011;8410;52.532;13.336;2022-09-20T13:39:22;1.03;;;0.80;;
16593;SDS011;8410;52.532;13.336;2022-09-20T13:41:54;0.83;;;0.70;;
16593;SDS011;8410;52.532;13.336;2022-09-20T13:44:28;3.43;;;1.20;;
16593;SDS011;8410;52.532;13.336;2022-09-20T13:46:59;1.07;;;0.90;;
16593;SDS011;8410;52.532;13.336;2022-09-20T13:49:30;1.77;;;0.93;;
16593;SDS011;8410;52.532;13.336;2022-09-20T13:51:59;1.03;;;0.93;;
16593;SDS011;8410;52.532;13.336;2022-09-20T13:54:46;1.43;;;1.20;;
16593;SDS011;8410;52.532;13.336;2022-09-20T13:57:14;2.10;;;0.97;;
16593;SDS011;8410;52.532;13.336;2022-09-20T13:59:45;1.80;;;1.00;;
16593;SDS011;8410;52.532;13.336;2022-09-20T14:02:17;1.30;;;0.87;;
16593;SDS011;8410;52.532;13.336;2022-09-20T14:04:49;1.63;;;1.00;;
16593;SDS011;8410;52.532;13.336;2022-09-20T14:07:20;2.27;;;0.90;;
16593;SDS011;8410;52.532;13.336;2022-09-20T14:09:51;1.50;;;1.20;;
16593;SDS011;8410;52.532;13.336;2022-09-20T14:12:19;2.13;;;1.00;;
16593;SDS011;8410;52.532;13.336;2022-09-20T14:14:48;2.17;;;1.03;;
16593;SDS011;8410;52.532;13.336;2022-09-20T14:17:17;1.67;;;1.37;;
16593;SDS011;8410;52.532;13.336;2022-09-20T14:19:48;0.87;;;0.70;;
16593;SDS011;8410;52.532;13.336;2022-09-20T14:22:19;2.43;;;1.07;;
16593;SDS011;8410;52.532;13.336;2022-09-20T14:24:59;2.50;;;0.70;;
16593;SDS011;8410;52.532;13.336;2022-09-20T14:27:29;0.80;;;0.70;;
16593;SDS011;8410;52.532;13.336;2022-09-20T14:29:57;1.17;;;0.60;;
16593;SDS011;8410;52.532;13.336;2022-09-20T14:32:27;1.43;;;0.53;;
16593;SDS011;8410;52.532;13.336;2022-09-20T14:35:04;1.60;;;0.77;;
16593;SDS011;8410;52.532;13.336;2022-09-20T14:37:42;0.93;;;0.70;;
16593;SDS011;8410;52.532;13.336;2022-09-20T14:40:21;0.50;;;0.50;;
16593;SDS011;8410;52.532;13.336;2022-09-20T14:42:52;2.10;;;0.73;;
16593;SDS011;8410;52.532;13.336;2022-09-20T14:45:23;1.07;;;0.60;;
16593;SDS011;8410;52.532;13.336;2022-09-20T14:47:57;0.60;;;0.60;;
16593;SDS011;8410;52.532;13.336;2022-09-20T14:50:35;4.53;;;0.60;;
16593;SDS011;8410;52.532;13.336;2022-09-20T14:55:56;1.50;;;0.53;;
16593;SDS011;8410;52.532;13.336;2022-09-20T14:58:25;1.83;;;0.63;;
16593;SDS011;8410;52.532;13.336;2022-09-20T15:00:53;0.90;;;0.67;;
16593;SDS011;8410;52.532;13.336;2022-09-20T15:03:27;2.07;;;0.43;;
16593;SDS011;8410;52.532;13.336;2022-09-20T15:05:57;1.27;;;0.50;;
16593;SDS011;8410;52.532;13.336;2022-09-20T15:08:25;1.50;;;0.80;;
16593;SDS011;8410;52.532;13.336;2022-09-20T15:10:53;1.03;;;0.50;;
16593;SDS011;8410;52.532;13.336;2022-09-20T15:13:21;1.10;;;0.70;;
16593;SDS011;8410;52.532;13.336;2022-09-20T15:15:49;0.60;;;0.50;;
16593;SDS011;8410;52.532;13.336;2022-09-20T15:18:19;0.60;;;0.50;;
16593;SDS011;8410;52.532;13.336;2022-09-20T15:20:49;1.03;;;0.70;;
16593;SDS011;8410;52.532;13.336;2022-09-20T15:23:16;2.90;;;0.53;;
16593;SDS011;8410;52.532;13.336;2022-09-20T15:25:46;1.83;;;1.10;;
16593;SDS011;8410;52.532;13.336;2022-09-20T15:28:17;1.90;;;0.80;;
16593;SDS011;8410;52.532;13.336;2022-09-20T15:30:45;1.03;;;0.70;;
16593;SDS011;8410;52.532;13.336;2022-09-20T15:33:16;1.37;;;0.70;;
16593;SDS011;8410;52.532;13.336;2022-09-20T15:35:43;3.50;;;0.57;;
16593;SDS011;8410;52.532;13.336;2022-09-20T15:38:12;1.10;;;0.50;;
16593;SDS011;8410;52.532;13.336;2022-09-20T15:40:43;1.03;;;0.70;;
16593;SDS011;8410;52.532;13.336;2022-09-20T15:43:15;0.40;;;0.40;;
16593;SDS011;8410;52.532;13.336;2022-09-20T15:45:46;1.60;;;0.80;;
16593;SDS011;8410;52.532;13.336;2022-09-20T15:48:15;2.10;;;0.70;;
16593;SDS011;8410;52.532;13.336;2022-09-20T15:53:31;3.23;;;0.77;;
16593;SDS011;8410;52.532;13.336;2022-09-20T15:56:01;1.20;;;0.60;;
16593;SDS011;8410;52.532;13.336;2022-09-20T15:58:32;1.70;;;0.50;;
16593;SDS011;8410;52.532;13.336;2022-09-20T16:01:02;1.37;;;0.63;;
16593;SDS011;8410;52.532;13.336;2022-09-20T16:03:32;1.73;;;0.63;;
16593;SDS011;8410;52.532;13.336;2022-09-20T16:06:00;2.07;;;1.23;;
16593;SDS011;8410;52.532;13.336;2022-09-20T16:08:30;4.47;;;1.80;;
16593;SDS011;8410;52.532;13.336;2022-09-20T16:10:58;2.37;;;1.87;;
16593;SDS011;8410;52.532;13.336;2022-09-20T16:13:26;3.00;;;2.03;;
16593;SDS011;8410;52.532;13.336;2022-09-20T16:15:56;3.07;;;2.57;;
16593;SDS011;8410;52.532;13.336;2022-09-20T16:18:25;0.97;;;0.50;;
16593;SDS011;8410;52.532;13.336;2022-09-20T16:21:11;2.00;;;0.83;;
16593;SDS011;8410;52.532;13.336;2022-09-20T16:23:41;1.63;;;1.13;;
16593;SDS011;8410;52.532;13.336;2022-09-20T16:26:13;2.07;;;1.00;;
16593;SDS011;8410;52.532;13.336;2022-09-20T16:28:40;2.17;;;1.30;;